sensor_id;sensor_type;location;lat;lon;timestamp;pressure;altitude;pressure_sealevel;temperature;humidity
20930;BME280;21895;47.072;15.132;2022-07-18T00:02:21;97650.00;;;16.84;76.19
20930;BME280;21895;47.072;15.132;2022-07-18T00:04:48;97651.00;;;16.76;75.97
20930;BME280;21895;47.072;15.132;2022-07-18T00:07:15;97653.00;;;16.74;76.19
20930;BME280;21895;47.072;15.132;2022-07-18T00:09:42;97648.00;;;16.79;75.34
20930;BME280;21895;47.072;15.132;2022-07-18T00:12:10;97647.00;;;16.74;75.21
20930;BME280;21895;47.072;15.132;2022-07-18T00:14:38;97652.00;;;16.66;75.46
20930;BME280;21895;47.072;15.132;2022-07-18T00:17:06;97651.00;;;16.78;75.45
20930;BME280;21895;47.072;15.132;2022-07-18T00:19:33;97654.00;;;16.71;75.03
20930;BME280;21895;47.072;15.132;2022-07-18T00:22:00;97655.00;;;16.55;75.54
20930;BME280;21895;47.072;15.132;2022-07-18T00:24:28;97654.00;;;16.63;75.84
20930;BME280;21895;47.072;15.132;2022-07-18T00:26:55;97664.00;;;16.64;75.84
20930;BME280;21895;47.072;15.132;2022-07-18T00:29:21;97657.00;;;16.61;75.92
20930;BME280;21895;47.072;15.132;2022-07-18T00:31:48;97660.00;;;16.61;75.80
20930;BME280;21895;47.072;15.132;2022-07-18T00:34:14;97660.00;;;16.66;75.83
20930;BME280;21895;47.072;15.132;2022-07-18T00:36:41;97668.00;;;16.70;75.48
20930;BME280;21895;47.072;15.132;2022-07-18T00:39:08;97667.00;;;16.56;75.00
20930;BME280;21895;47.072;15.132;2022-07-18T00:41:34;97667.00;;;16.44;74.33
20930;BME280;21895;47.072;15.132;2022-07-18T00:44:02;97666.00;;;16.33;75.08
20930;BME280;21895;47.072;15.132;2022-07-18T00:46:28;97663.00;;;16.42;75.41
20930;BME280;21895;47.072;15.132;2022-07-18T00:48:56;97665.00;;;16.46;75.90
20930;BME280;21895;47.072;15.132;2022-07-18T00:51:22;97670.00;;;16.34;76.56
20930;BME280;21895;47.072;15.132;2022-07-18T00:53:50;97666.00;;;16.33;76.24
20930;BME280;21895;47.072;15.132;2022-07-18T00:56:19;97660.00;;;16.23;76.73
20930;BME280;21895;47.072;15.132;2022-07-18T00:58:46;97661.00;;;16.32;77.04
20930;BME280;21895;47.072;15.132;2022-07-18T01:01:13;97661.00;;;16.41;76.94
20930;BME280;21895;47.072;15.132;2022-07-18T01:03:59;97661.00;;;16.45;76.28
20930;BME280;21895;47.072;15.132;2022-07-18T01:06:26;97663.00;;;16.38;76.17
20930;BME280;21895;47.072;15.132;2022-07-18T01:08:52;97652.00;;;16.41;75.61
20930;BME280;21895;47.072;15.132;2022-07-18T01:11:19;97657.00;;;16.28;75.74
20930;BME280;21895;47.072;15.132;2022-07-18T01:13:47;97656.00;;;16.15;75.35
20930;BME280;21895;47.072;15.132;2022-07-18T01:16:16;97646.00;;;16.11;75.62
20930;BME280;21895;47.072;15.132;2022-07-18T01:18:49;97647.00;;;16.11;76.06
20930;BME280;21895;47.072;15.132;2022-07-18T01:21:16;97647.00;;;16.08;76.03
20930;BME280;21895;47.072;15.132;2022-07-18T01:23:44;97652.00;;;16.09;76.90
20930;BME280;21895;47.072;15.132;2022-07-18T01:26:15;97660.00;;;16.18;76.68
20930;BME280;21895;47.072;15.132;2022-07-18T01:28:44;97656.00;;;16.10;75.84
20930;BME280;21895;47.072;15.132;2022-07-18T01:31:11;97660.00;;;15.84;75.59
20930;BME280;21895;47.072;15.132;2022-07-18T01:33:38;97661.00;;;15.85;75.69
20930;BME280;21895;47.072;15.132;2022-07-18T01:36:07;97657.00;;;15.77;75.63
20930;BME280;21895;47.072;15.132;2022-07-18T01:38:35;97650.00;;;15.78;75.92
20930;BME280;21895;47.072;15.132;2022-07-18T01:41:03;97656.00;;;16.00;76.64
20930;BME280;21895;47.072;15.132;2022-07-18T01:43:31;97657.00;;;16.04;76.95
20930;BME280;21895;47.072;15.132;2022-07-18T01:45:58;97657.00;;;16.07;75.46
20930;BME280;21895;47.072;15.132;2022-07-18T01:48:25;97656.00;;;15.88;74.93
20930;BME280;21895;47.072;15.132;2022-07-18T01:50:52;97648.00;;;15.87;75.64
20930;BME280;21895;47.072;15.132;2022-07-18T01:53:19;97655.00;;;15.94;75.52
20930;BME280;21895;47.072;15.132;2022-07-18T01:55:46;97659.00;;;15.97;75.31
20930;BME280;21895;47.072;15.132;2022-07-18T01:58:12;97653.00;;;15.85;75.24
20930;BME280;21895;47.072;15.132;2022-07-18T02:00:39;97658.00;;;15.76;76.32
20930;BME280;21895;47.072;15.132;2022-07-18T02:03:05;97652.00;;;15.82;76.93
20930;BME280;21895;47.072;15.132;2022-07-18T02:05:32;97651.00;;;15.75;77.65
20930;BME280;21895;47.072;15.132;2022-07-18T02:07:59;97647.00;;;15.88;77.16
20930;BME280;21895;47.072;15.132;2022-07-18T02:10:26;97654.00;;;15.89;77.11
20930;BME280;21895;47.072;15.132;2022-07-18T02:12:52;97656.00;;;15.93;77.56
20930;BME280;21895;47.072;15.132;2022-07-18T02:15:19;97653.00;;;16.00;77.43
20930;BME280;21895;47.072;15.132;2022-07-18T02:17:45;97648.00;;;16.00;77.47
20930;BME280;21895;47.072;15.132;2022-07-18T02:20:13;97652.00;;;15.97;77.22
20930;BME280;21895;47.072;15.132;2022-07-18T02:22:41;97648.00;;;15.97;76.58
20930;BME280;21895;47.072;15.132;2022-07-18T02:25:09;97640.00;;;15.92;76.88
20930;BME280;21895;47.072;15.132;2022-07-18T02:27:36;97644.00;;;15.83;76.73
20930;BME280;21895;47.072;15.132;2022-07-18T02:30:06;97643.00;;;15.79;76.60
20930;BME280;21895;47.072;15.132;2022-07-18T02:32:33;97646.00;;;15.79;76.48
20930;BME280;21895;47.072;15.132;2022-07-18T02:35:01;97648.00;;;15.73;76.30
20930;BME280;21895;47.072;15.132;2022-07-18T02:37:28;97648.00;;;15.73;75.96
20930;BME280;21895;47.072;15.132;2022-07-18T02:39:55;97651.00;;;15.67;76.15
20930;BME280;21895;47.072;15.132;2022-07-18T02:42:21;97645.00;;;15.68;75.95
20930;BME280;21895;47.072;15.132;2022-07-18T02:44:48;97652.00;;;15.56;76.21
20930;BME280;21895;47.072;15.132;2022-07-18T02:47:14;97644.00;;;15.51;76.86
20930;BME280;21895;47.072;15.132;2022-07-18T02:49:41;97650.00;;;15.56;77.25
20930;BME280;21895;47.072;15.132;2022-07-18T02:52:08;97642.00;;;15.41;77.27
20930;BME280;21895;47.072;15.132;2022-07-18T02:54:37;97642.00;;;15.34;76.45
20930;BME280;21895;47.072;15.132;2022-07-18T02:57:05;97642.00;;;15.31;75.97
20930;BME280;21895;47.072;15.132;2022-07-18T02:59:33;97646.00;;;15.27;75.81
20930;BME280;21895;47.072;15.132;2022-07-18T03:02:00;97644.00;;;15.14;76.24
20930;BME280;21895;47.072;15.132;2022-07-18T03:04:26;97646.00;;;15.05;76.99
20930;BME280;21895;47.072;15.132;2022-07-18T03:06:53;97649.00;;;15.12;77.41
20930;BME280;21895;47.072;15.132;2022-07-18T03:09:19;97648.00;;;15.21;77.79
20930;BME280;21895;47.072;15.132;2022-07-18T03:11:46;97647.00;;;15.32;78.22
20930;BME280;21895;47.072;15.132;2022-07-18T03:14:14;97647.00;;;15.34;79.74
20930;BME280;21895;47.072;15.132;2022-07-18T03:16:40;97659.00;;;15.52;80.13
20930;BME280;21895;47.072;15.132;2022-07-18T03:19:07;97657.00;;;15.59;80.09
20930;BME280;21895;47.072;15.132;2022-07-18T03:21:34;97655.00;;;15.72;79.32
20930;BME280;21895;47.072;15.132;2022-07-18T03:24:00;97655.00;;;15.64;76.41
20930;BME280;21895;47.072;15.132;2022-07-18T03:26:27;97659.00;;;15.65;75.81
20930;BME280;21895;47.072;15.132;2022-07-18T03:28:53;97657.00;;;15.66;76.04
20930;BME280;21895;47.072;15.132;2022-07-18T03:31:20;97659.00;;;15.67;75.75
20930;BME280;21895;47.072;15.132;2022-07-18T03:33:49;97664.00;;;15.71;75.80
20930;BME280;21895;47.072;15.132;2022-07-18T03:36:16;97656.00;;;15.66;75.77
20930;BME280;21895;47.072;15.132;2022-07-18T03:38:43;97658.00;;;15.71;75.78
20930;BME280;21895;47.072;15.132;2022-07-18T03:41:11;97658.00;;;15.73;76.00
20930;BME280;21895;47.072;15.132;2022-07-18T03:43:39;97661.00;;;15.80;76.09
20930;BME280;21895;47.072;15.132;2022-07-18T03:46:06;97666.00;;;15.86;76.24
20930;BME280;21895;47.072;15.132;2022-07-18T03:48:34;97667.00;;;15.78;76.20
20930;BME280;21895;47.072;15.132;2022-07-18T03:51:02;97656.00;;;15.80;75.93
20930;BME280;21895;47.072;15.132;2022-07-18T03:53:30;97660.00;;;15.86;75.23
20930;BME280;21895;47.072;15.132;2022-07-18T03:55:57;97666.00;;;15.83;75.45
20930;BME280;21895;47.072;15.132;2022-07-18T03:58:23;97667.00;;;15.79;75.42
20930;BME280;21895;47.072;15.132;2022-07-18T04:00:50;97669.00;;;15.78;75.79
20930;BME280;21895;47.072;15.132;2022-07-18T04:03:17;97665.00;;;15.92;75.84
20930;BME280;21895;47.072;15.132;2022-07-18T04:05:45;97666.00;;;15.98;75.70
20930;BME280;21895;47.072;15.132;2022-07-18T04:08:15;97667.00;;;16.04;75.24
20930;BME280;21895;47.072;15.132;2022-07-18T04:10:41;97666.00;;;16.02;74.37
20930;BME280;21895;47.072;15.132;2022-07-18T04:13:09;97663.00;;;15.99;74.06
20930;BME280;21895;47.072;15.132;2022-07-18T04:15:37;97671.00;;;16.08;74.06
20930;BME280;21895;47.072;15.132;2022-07-18T04:18:07;97666.00;;;16.13;73.51
20930;BME280;21895;47.072;15.132;2022-07-18T04:20:35;97671.00;;;16.26;73.54
20930;BME280;21895;47.072;15.132;2022-07-18T04:23:06;97668.00;;;16.35;73.69
20930;BME280;21895;47.072;15.132;2022-07-18T04:25:36;97670.00;;;16.49;73.65
20930;BME280;21895;47.072;15.132;2022-07-18T04:28:05;97670.00;;;16.49;73.63
20930;BME280;21895;47.072;15.132;2022-07-18T04:30:32;97671.00;;;16.66;73.56
20930;BME280;21895;47.072;15.132;2022-07-18T04:33:03;97670.00;;;16.70;72.89
20930;BME280;21895;47.072;15.132;2022-07-18T04:35:30;97668.00;;;16.70;72.91
20930;BME280;21895;47.072;15.132;2022-07-18T04:37:57;97670.00;;;16.95;72.41
20930;BME280;21895;47.072;15.132;2022-07-18T04:40:24;97672.00;;;17.01;72.40
20930;BME280;21895;47.072;15.132;2022-07-18T04:42:51;97668.00;;;17.07;72.43
20930;BME280;21895;47.072;15.132;2022-07-18T04:45:18;97671.00;;;17.22;72.42
20930;BME280;21895;47.072;15.132;2022-07-18T04:47:50;97662.00;;;17.42;72.17
20930;BME280;21895;47.072;15.132;2022-07-18T04:50:17;97666.00;;;17.48;71.55
20930;BME280;21895;47.072;15.132;2022-07-18T04:52:46;97669.00;;;17.40;71.76
20930;BME280;21895;47.072;15.132;2022-07-18T04:55:15;97676.00;;;17.24;72.40
20930;BME280;21895;47.072;15.132;2022-07-18T04:57:42;97656.00;;;17.42;72.70
20930;BME280;21895;47.072;15.132;2022-07-18T05:00:23;97676.00;;;17.52;72.83
20930;BME280;21895;47.072;15.132;2022-07-18T05:02:52;97669.00;;;17.62;72.46
20930;BME280;21895;47.072;15.132;2022-07-18T05:05:20;97663.00;;;17.76;71.95
20930;BME280;21895;47.072;15.132;2022-07-18T05:07:48;97664.00;;;17.85;71.67
20930;BME280;21895;47.072;15.132;2022-07-18T05:10:18;97661.00;;;18.02;71.86
20930;BME280;21895;47.072;15.132;2022-07-18T05:12:49;97652.00;;;18.27;71.70
20930;BME280;21895;47.072;15.132;2022-07-18T05:15:18;97653.00;;;18.51;71.00
20930;BME280;21895;47.072;15.132;2022-07-18T05:17:45;97653.00;;;18.75;70.03
20930;BME280;21895;47.072;15.132;2022-07-18T05:20:16;97655.00;;;18.96;70.86
20930;BME280;21895;47.072;15.132;2022-07-18T05:22:44;97656.00;;;19.19;70.36
20930;BME280;21895;47.072;15.132;2022-07-18T05:25:12;97657.00;;;19.60;69.65
20930;BME280;21895;47.072;15.132;2022-07-18T05:27:40;97656.00;;;19.95;68.36
20930;BME280;21895;47.072;15.132;2022-07-18T05:30:10;97649.00;;;20.21;67.44
20930;BME280;21895;47.072;15.132;2022-07-18T05:32:39;97659.00;;;20.53;65.62
20930;BME280;21895;47.072;15.132;2022-07-18T05:35:07;97653.00;;;20.92;64.32
20930;BME280;21895;47.072;15.132;2022-07-18T05:37:34;97645.00;;;21.24;63.29
20930;BME280;21895;47.072;15.132;2022-07-18T05:40:04;97645.00;;;21.55;60.91
20930;BME280;21895;47.072;15.132;2022-07-18T05:42:32;97649.00;;;21.88;59.66
20930;BME280;21895;47.072;15.132;2022-07-18T05:45:18;97642.00;;;22.15;58.88
20930;BME280;21895;47.072;15.132;2022-07-18T05:47:45;97642.00;;;22.40;57.21
20930;BME280;21895;47.072;15.132;2022-07-18T05:50:11;97642.00;;;22.59;56.48
20930;BME280;21895;47.072;15.132;2022-07-18T05:52:38;97641.00;;;22.81;56.08
20930;BME280;21895;47.072;15.132;2022-07-18T05:55:06;97643.00;;;23.01;57.16
20930;BME280;21895;47.072;15.132;2022-07-18T05:57:33;97630.00;;;23.03;57.36
20930;BME280;21895;47.072;15.132;2022-07-18T06:00:00;97633.00;;;23.22;58.87
20930;BME280;21895;47.072;15.132;2022-07-18T06:02:26;97634.00;;;23.26;57.83
20930;BME280;21895;47.072;15.132;2022-07-18T06:04:53;97635.00;;;23.53;57.34
20930;BME280;21895;47.072;15.132;2022-07-18T06:07:47;97632.00;;;23.66;56.47
20930;BME280;21895;47.072;15.132;2022-07-18T06:10:14;97631.00;;;23.93;55.87
20930;BME280;21895;47.072;15.132;2022-07-18T06:12:41;97634.00;;;24.19;56.41
20930;BME280;21895;47.072;15.132;2022-07-18T06:15:08;97632.00;;;24.26;55.89
20930;BME280;21895;47.072;15.132;2022-07-18T06:17:35;97637.00;;;24.24;54.01
20930;BME280;21895;47.072;15.132;2022-07-18T06:20:01;97635.00;;;24.21;53.87
20930;BME280;21895;47.072;15.132;2022-07-18T06:22:31;97625.00;;;24.22;52.03
20930;BME280;21895;47.072;15.132;2022-07-18T06:24:57;97627.00;;;24.36;52.04
20930;BME280;21895;47.072;15.132;2022-07-18T06:27:24;97632.00;;;24.53;52.69
20930;BME280;21895;47.072;15.132;2022-07-18T06:29:50;97624.00;;;24.72;53.13
20930;BME280;21895;47.072;15.132;2022-07-18T06:32:17;97633.00;;;24.83;52.65
20930;BME280;21895;47.072;15.132;2022-07-18T06:34:43;97631.00;;;24.85;52.44
20930;BME280;21895;47.072;15.132;2022-07-18T06:37:10;97629.00;;;25.20;51.42
20930;BME280;21895;47.072;15.132;2022-07-18T06:39:36;97625.00;;;25.23;51.73
20930;BME280;21895;47.072;15.132;2022-07-18T06:42:03;97627.00;;;25.34;51.43
20930;BME280;21895;47.072;15.132;2022-07-18T06:44:29;97629.00;;;25.39;49.74
20930;BME280;21895;47.072;15.132;2022-07-18T06:46:56;97629.00;;;25.51;49.09
20930;BME280;21895;47.072;15.132;2022-07-18T06:49:25;97623.00;;;25.83;48.77
20930;BME280;21895;47.072;15.132;2022-07-18T06:51:52;97616.00;;;25.93;47.10
20930;BME280;21895;47.072;15.132;2022-07-18T06:54:19;97614.00;;;26.12;46.83
20930;BME280;21895;47.072;15.132;2022-07-18T06:56:46;97615.00;;;26.17;46.02
20930;BME280;21895;47.072;15.132;2022-07-18T06:59:12;97614.00;;;26.19;47.39
20930;BME280;21895;47.072;15.132;2022-07-18T07:01:39;97618.00;;;26.35;47.43
20930;BME280;21895;47.072;15.132;2022-07-18T07:04:06;97612.00;;;26.73;47.08
20930;BME280;21895;47.072;15.132;2022-07-18T07:06:32;97614.00;;;26.85;46.49
20930;BME280;21895;47.072;15.132;2022-07-18T07:08:59;97611.00;;;26.83;48.98
20930;BME280;21895;47.072;15.132;2022-07-18T07:11:25;97609.00;;;26.78;47.58
20930;BME280;21895;47.072;15.132;2022-07-18T07:13:52;97607.00;;;26.87;47.31
20930;BME280;21895;47.072;15.132;2022-07-18T07:16:18;97606.00;;;27.06;46.03
20930;BME280;21895;47.072;15.132;2022-07-18T07:18:45;97598.00;;;27.04;46.64
20930;BME280;21895;47.072;15.132;2022-07-18T07:21:12;97600.00;;;27.07;47.10
20930;BME280;21895;47.072;15.132;2022-07-18T07:23:45;97595.00;;;27.00;46.97
20930;BME280;21895;47.072;15.132;2022-07-18T07:26:12;97603.00;;;27.05;46.81
20930;BME280;21895;47.072;15.132;2022-07-18T07:28:38;97596.00;;;27.22;46.65
20930;BME280;21895;47.072;15.132;2022-07-18T07:31:05;97597.00;;;27.49;45.73
20930;BME280;21895;47.072;15.132;2022-07-18T07:33:32;97595.00;;;27.63;45.40
20930;BME280;21895;47.072;15.132;2022-07-18T07:35:59;97585.00;;;27.82;45.03
20930;BME280;21895;47.072;15.132;2022-07-18T07:38:26;97587.00;;;27.94;45.45
20930;BME280;21895;47.072;15.132;2022-07-18T07:40:56;97590.00;;;27.85;45.93
20930;BME280;21895;47.072;15.132;2022-07-18T07:43:23;97582.00;;;27.98;45.83
20930;BME280;21895;47.072;15.132;2022-07-18T07:45:50;97585.00;;;28.16;43.64
20930;BME280;21895;47.072;15.132;2022-07-18T07:48:19;97588.00;;;28.14;43.61
20930;BME280;21895;47.072;15.132;2022-07-18T07:50:46;97576.00;;;28.34;41.78
20930;BME280;21895;47.072;15.132;2022-07-18T07:53:12;97567.00;;;28.46;42.88
20930;BME280;21895;47.072;15.132;2022-07-18T07:55:39;97571.00;;;28.62;42.71
20930;BME280;21895;47.072;15.132;2022-07-18T07:58:06;97570.00;;;28.49;42.15
20930;BME280;21895;47.072;15.132;2022-07-18T08:00:32;97567.00;;;28.49;41.86
20930;BME280;21895;47.072;15.132;2022-07-18T08:03:05;97571.00;;;28.65;42.14
20930;BME280;21895;47.072;15.132;2022-07-18T08:05:38;97574.00;;;28.82;41.78
20930;BME280;21895;47.072;15.132;2022-07-18T08:08:09;97578.00;;;28.89;41.57
20930;BME280;21895;47.072;15.132;2022-07-18T08:10:36;97578.00;;;28.84;41.71
20930;BME280;21895;47.072;15.132;2022-07-18T08:13:11;97575.00;;;28.93;40.50
20930;BME280;21895;47.072;15.132;2022-07-18T08:15:38;97575.00;;;28.96;39.58
20930;BME280;21895;47.072;15.132;2022-07-18T08:18:05;97577.00;;;28.99;39.69
20930;BME280;21895;47.072;15.132;2022-07-18T08:20:32;97571.00;;;29.20;38.91
20930;BME280;21895;47.072;15.132;2022-07-18T08:23:07;97576.00;;;29.15;37.93
20930;BME280;21895;47.072;15.132;2022-07-18T08:25:37;97573.00;;;29.07;37.85
20930;BME280;21895;47.072;15.132;2022-07-18T08:28:06;97582.00;;;28.91;38.84
20930;BME280;21895;47.072;15.132;2022-07-18T08:30:34;97571.00;;;28.83;39.53
20930;BME280;21895;47.072;15.132;2022-07-18T08:33:01;97579.00;;;28.98;38.33
20930;BME280;21895;47.072;15.132;2022-07-18T08:35:29;97582.00;;;28.95;38.54
20930;BME280;21895;47.072;15.132;2022-07-18T08:37:56;97573.00;;;28.86;38.49
20930;BME280;21895;47.072;15.132;2022-07-18T08:40:23;97577.00;;;28.85;38.63
20930;BME280;21895;47.072;15.132;2022-07-18T08:42:52;97574.00;;;28.95;38.18
20930;BME280;21895;47.072;15.132;2022-07-18T08:45:55;97573.00;;;28.95;38.05
20930;BME280;21895;47.072;15.132;2022-07-18T08:48:23;97575.00;;;29.08;37.93
20930;BME280;21895;47.072;15.132;2022-07-18T08:50:50;97568.00;;;29.14;38.16
20930;BME280;21895;47.072;15.132;2022-07-18T08:53:18;97566.00;;;29.01;37.72
20930;BME280;21895;47.072;15.132;2022-07-18T08:55:48;97572.00;;;29.30;37.38
20930;BME280;21895;47.072;15.132;2022-07-18T08:58:16;97567.00;;;29.52;38.32
20930;BME280;21895;47.072;15.132;2022-07-18T09:01:13;97560.00;;;29.30;36.77
20930;BME280;21895;47.072;15.132;2022-07-18T09:03:40;97562.00;;;29.00;37.29
20930;BME280;21895;47.072;15.132;2022-07-18T09:06:13;97562.00;;;29.05;38.59
20930;BME280;21895;47.072;15.132;2022-07-18T09:08:57;97571.00;;;29.17;38.88
20930;BME280;21895;47.072;15.132;2022-07-18T09:11:24;97563.00;;;29.32;38.22
20930;BME280;21895;47.072;15.132;2022-07-18T09:15:21;97556.00;;;29.31;37.69
20930;BME280;21895;47.072;15.132;2022-07-18T09:17:50;97562.00;;;29.36;37.47
20930;BME280;21895;47.072;15.132;2022-07-18T09:20:32;97555.00;;;29.60;38.78
20930;BME280;21895;47.072;15.132;2022-07-18T09:22:58;97556.00;;;29.67;38.45
20930;BME280;21895;47.072;15.132;2022-07-18T09:25:25;97555.00;;;29.82;37.48
20930;BME280;21895;47.072;15.132;2022-07-18T09:27:53;97551.00;;;29.57;37.61
20930;BME280;21895;47.072;15.132;2022-07-18T09:30:31;97553.00;;;29.87;37.82
20930;BME280;21895;47.072;15.132;2022-07-18T09:33:09;97557.00;;;29.94;35.96
20930;BME280;21895;47.072;15.132;2022-07-18T09:35:51;97556.00;;;30.06;37.22
20930;BME280;21895;47.072;15.132;2022-07-18T09:38:20;97554.00;;;29.90;37.50
20930;BME280;21895;47.072;15.132;2022-07-18T09:40:50;97551.00;;;29.92;36.49
20930;BME280;21895;47.072;15.132;2022-07-18T09:43:23;97551.00;;;30.09;36.97
20930;BME280;21895;47.072;15.132;2022-07-18T09:45:54;97557.00;;;30.00;37.74
20930;BME280;21895;47.072;15.132;2022-07-18T09:48:24;97544.00;;;29.96;37.51
20930;BME280;21895;47.072;15.132;2022-07-18T09:51:01;97548.00;;;29.90;36.43
20930;BME280;21895;47.072;15.132;2022-07-18T09:53:43;97537.00;;;29.71;37.14
20930;BME280;21895;47.072;15.132;2022-07-18T09:56:23;97548.00;;;29.81;37.44
20930;BME280;21895;47.072;15.132;2022-07-18T09:58:53;97537.00;;;29.81;37.19
20930;BME280;21895;47.072;15.132;2022-07-18T10:01:22;97536.00;;;29.64;36.69
20930;BME280;21895;47.072;15.132;2022-07-18T10:03:49;97541.00;;;29.72;38.81
20930;BME280;21895;47.072;15.132;2022-07-18T10:06:17;97540.00;;;29.78;36.91
20930;BME280;21895;47.072;15.132;2022-07-18T10:08:45;97548.00;;;29.67;36.21
20930;BME280;21895;47.072;15.132;2022-07-18T10:11:11;97542.00;;;29.99;36.63
20930;BME280;21895;47.072;15.132;2022-07-18T10:13:38;97537.00;;;29.76;36.70
20930;BME280;21895;47.072;15.132;2022-07-18T10:16:06;97540.00;;;29.92;36.31
20930;BME280;21895;47.072;15.132;2022-07-18T10:18:35;97542.00;;;29.79;36.12
20930;BME280;21895;47.072;15.132;2022-07-18T10:21:13;97534.00;;;29.87;36.21
20930;BME280;21895;47.072;15.132;2022-07-18T10:23:45;97533.00;;;30.08;36.40
20930;BME280;21895;47.072;15.132;2022-07-18T10:26:21;97536.00;;;30.07;35.46
20930;BME280;21895;47.072;15.132;2022-07-18T10:29:23;97533.00;;;30.08;35.72
20930;BME280;21895;47.072;15.132;2022-07-18T10:32:04;97518.00;;;30.24;35.26
20930;BME280;21895;47.072;15.132;2022-07-18T10:34:37;97520.00;;;30.21;35.39
20930;BME280;21895;47.072;15.132;2022-07-18T10:37:10;97519.00;;;30.24;36.28
20930;BME280;21895;47.072;15.132;2022-07-18T10:39:42;97518.00;;;29.94;36.36
20930;BME280;21895;47.072;15.132;2022-07-18T10:42:16;97511.00;;;30.24;36.16
20930;BME280;21895;47.072;15.132;2022-07-18T10:44:45;97513.00;;;30.20;36.36
20930;BME280;21895;47.072;15.132;2022-07-18T10:47:19;97511.00;;;30.24;35.59
20930;BME280;21895;47.072;15.132;2022-07-18T10:50:08;97518.00;;;30.38;35.38
20930;BME280;21895;47.072;15.132;2022-07-18T10:52:56;97516.00;;;30.46;34.76
20930;BME280;21895;47.072;15.132;2022-07-18T10:55:32;97515.00;;;30.57;34.79
20930;BME280;21895;47.072;15.132;2022-07-18T10:58:21;97512.00;;;29.92;36.24
20930;BME280;21895;47.072;15.132;2022-07-18T11:00:52;97506.00;;;30.00;36.15
20930;BME280;21895;47.072;15.132;2022-07-18T11:03:26;97500.00;;;29.89;35.79
20930;BME280;21895;47.072;15.132;2022-07-18T11:05:55;97493.00;;;29.83;35.32
20930;BME280;21895;47.072;15.132;2022-07-18T11:08:23;97492.00;;;30.00;36.27
20930;BME280;21895;47.072;15.132;2022-07-18T11:11:12;97491.00;;;30.10;35.17
20930;BME280;21895;47.072;15.132;2022-07-18T11:13:45;97489.00;;;29.49;35.52
20930;BME280;21895;47.072;15.132;2022-07-18T11:16:22;97483.00;;;29.65;35.87
20930;BME280;21895;47.072;15.132;2022-07-18T11:19:35;97485.00;;;30.04;36.39
20930;BME280;21895;47.072;15.132;2022-07-18T11:22:02;97476.00;;;30.27;34.91
20930;BME280;21895;47.072;15.132;2022-07-18T11:24:29;97473.00;;;30.51;35.92
20930;BME280;21895;47.072;15.132;2022-07-18T11:26:55;97472.00;;;30.43;34.69
20930;BME280;21895;47.072;15.132;2022-07-18T11:29:22;97476.00;;;30.16;34.25
20930;BME280;21895;47.072;15.132;2022-07-18T11:31:57;97477.00;;;30.13;34.63
20930;BME280;21895;47.072;15.132;2022-07-18T11:34:26;97471.00;;;30.01;34.83
20930;BME280;21895;47.072;15.132;2022-07-18T11:37:14;97464.00;;;30.26;34.53
20930;BME280;21895;47.072;15.132;2022-07-18T11:39:43;97464.00;;;30.17;35.70
20930;BME280;21895;47.072;15.132;2022-07-18T11:42:10;97468.00;;;30.33;34.81
20930;BME280;21895;47.072;15.132;2022-07-18T11:44:38;97463.00;;;30.39;34.48
20930;BME280;21895;47.072;15.132;2022-07-18T11:47:10;97462.00;;;30.32;35.98
20930;BME280;21895;47.072;15.132;2022-07-18T11:49:38;97464.00;;;30.34;34.91
20930;BME280;21895;47.072;15.132;2022-07-18T11:52:06;97463.00;;;30.31;34.72
20930;BME280;21895;47.072;15.132;2022-07-18T11:54:34;97455.00;;;30.08;34.98
20930;BME280;21895;47.072;15.132;2022-07-18T11:57:01;97458.00;;;29.89;36.44
20930;BME280;21895;47.072;15.132;2022-07-18T11:59:42;97456.00;;;29.74;36.65
20930;BME280;21895;47.072;15.132;2022-07-18T12:02:10;97452.00;;;30.06;37.16
20930;BME280;21895;47.072;15.132;2022-07-18T12:04:38;97455.00;;;30.15;35.87
20930;BME280;21895;47.072;15.132;2022-07-18T12:07:24;97446.00;;;30.32;35.08
20930;BME280;21895;47.072;15.132;2022-07-18T12:09:52;97452.00;;;30.09;35.02
20930;BME280;21895;47.072;15.132;2022-07-18T12:12:21;97443.00;;;30.18;36.97
20930;BME280;21895;47.072;15.132;2022-07-18T12:15:02;97447.00;;;30.41;37.00
20930;BME280;21895;47.072;15.132;2022-07-18T12:17:30;97439.00;;;30.31;35.38
20930;BME280;21895;47.072;15.132;2022-07-18T12:20:22;97441.00;;;30.09;36.66
20930;BME280;21895;47.072;15.132;2022-07-18T12:23:10;97440.00;;;30.18;36.30
20930;BME280;21895;47.072;15.132;2022-07-18T12:25:41;97439.00;;;30.26;35.70
20930;BME280;21895;47.072;15.132;2022-07-18T12:28:18;97432.00;;;30.01;35.08
20930;BME280;21895;47.072;15.132;2022-07-18T12:30:46;97438.00;;;30.01;36.03
20930;BME280;21895;47.072;15.132;2022-07-18T12:33:13;97434.00;;;30.05;36.13
20930;BME280;21895;47.072;15.132;2022-07-18T12:35:40;97429.00;;;29.96;35.86
20930;BME280;21895;47.072;15.132;2022-07-18T12:38:16;97427.00;;;30.20;35.40
20930;BME280;21895;47.072;15.132;2022-07-18T12:40:59;97437.00;;;30.14;35.19
20930;BME280;21895;47.072;15.132;2022-07-18T12:43:34;97421.00;;;30.25;35.07
20930;BME280;21895;47.072;15.132;2022-07-18T12:46:07;97428.00;;;30.29;36.24
20930;BME280;21895;47.072;15.132;2022-07-18T12:48:35;97431.00;;;30.52;34.96
20930;BME280;21895;47.072;15.132;2022-07-18T12:51:08;97410.00;;;30.49;35.73
20930;BME280;21895;47.072;15.132;2022-07-18T12:53:41;97420.00;;;30.54;34.30
20930;BME280;21895;47.072;15.132;2022-07-18T12:56:10;97419.00;;;30.45;33.94
20930;BME280;21895;47.072;15.132;2022-07-18T12:58:37;97419.00;;;30.41;33.99
20930;BME280;21895;47.072;15.132;2022-07-18T13:01:04;97417.00;;;30.29;35.32
20930;BME280;21895;47.072;15.132;2022-07-18T13:03:36;97416.00;;;30.51;34.45
20930;BME280;21895;47.072;15.132;2022-07-18T13:06:06;97405.00;;;30.57;33.13